Corning, New York
Current Conditions -  °F | °C
As of 4:53 PM on Tuesday 25 Nov 2014 (Local Time) from KELM Reporting Station
Clear Clear  
Wind Chill: 42°   Ceiling: Unl
Heat Index: 46°   Visibility: 10mi
Dew Point: 26°   Wind: 7mph
Humidity: 46%   Direction: 240°WSW
Pressure: 29.99"   Gusts: NA
Location:  42.14°N, 77.05°W
Report Text: KELM 252153Z AUTO 24006KT 10SM CLR 08/M03 A2999 RMK AO2 SLP159 T00781033
Loading
Personal Weather Stations






























Interactive Weather Map New forecast layout! Learn more

10-Day Weather Forecast

Advertisements
Track Severe Weather on mobile